Terminal Aerodrome Forecast
Issued by NWS

Current Version | Previous Version | Text Only | Print | Product List | Glossary On
Versions: 1 2 3 4 5 6 7 8 9 10 11 12 13 14 15 16 17 18 19 20 21 22 23 24 25 26 27 28 29 30 31 32 33 34 35
000
FTUS41 KBOX 301743
TAFBED
TAF
KBED 301743Z 3018/0118 01006KT P6SM OVC005
     FM010600 02006KT 3SM -DZ BR OVC003
     FM011100 03008KT 3SM -RA BR OVC003
     FM011400 03011KT 2SM -RA BR OVC008
     FM011500 04013KT 3SM -RA BR OVC008=

USA.gov is the U.S. government's official web portal to all federal, state and local government web resources and services.